Time,TemperatureF,DewpointF,PressureIn,WindDirection,WindDirectionDegrees,WindSpeedMPH,WindSpeedGustMPH,Humidity,HourlyPrecipIn,Conditions,Clouds,dailyrainin,SolarRadiationWatts/m^2,SoftwareType,DateUTC
2013-07-06 00:01:00,78.3,64.2,29.87,South,184,5.0,11.5,62,0.00,FEW,,0.00,0.0,WeatherDisplay:10.37,2013-07-06 05:01:00,
2013-07-06 00:06:00,78.2,64.1,29.87,South,175,3.9,6.9,62,0.00,FEW,,0.00,0.0,WeatherDisplay:10.37,2013-07-06 05:06:00,
2013-07-06 00:11:00,78.1,64.5,29.87,WNW,300,5.3,9.2,63,0.00,FEW,,0.00,0.0,WeatherDisplay:10.37,2013-07-06 05:11:00,
2013-07-06 00:16:00,77.9,64.7,29.88,South,189,3.2,4.0,64,0.00,FEW,,0.00,0.0,WeatherDisplay:10.37,2013-07-06 05:16:00,
2013-07-06 00:21:00,77.7,64.5,29.88,SW,225,5.0,8.0,64,0.00,FEW,,0.00,0.0,WeatherDisplay:10.37,2013-07-06 05:21:00,
2013-07-06 00:26:00,77.6,64.5,29.88,South,185,3.5,10.4,64,0.00,FEW,,0.00,0.0,WeatherDisplay:10.37,2013-07-06 05:26:00,
2013-07-06 00:31:00,77.6,64.9,29.88,SSW,208,5.6,7.0,65,0.00,FEW,,0.00,0.0,WeatherDisplay:10.37,2013-07-06 05:31:00,
2013-07-06 00:36:00,77.4,65.1,29.88,SSW,201,4.2,7.0,66,0.00,FEW,,0.00,0.0,WeatherDisplay:10.37,2013-07-06 05:36:00,
2013-07-06 00:41:00,77.2,65.0,29.88,SW,219,5.2,9.0,66,0.00,FEW,,0.00,0.0,WeatherDisplay:10.37,2013-07-06 05:41:00,
2013-07-06 00:46:00,77.1,64.9,29.88,South,180,5.7,11.5,66,0.00,FEW,,0.00,0.0,WeatherDisplay:10.37,2013-07-06 05:46:00,
2013-07-06 00:51:00,77.1,64.9,29.88,South,173,3.4,6.9,66,0.00,FEW,,0.00,0.0,WeatherDisplay:10.37,2013-07-06 05:51:00,
2013-07-06 00:56:00,77.1,64.9,29.88,South,178,4.8,6.9,66,0.00,FEW,,0.00,0.0,WeatherDisplay:10.37,2013-07-06 05:56:00,
2013-07-06 01:01:00,77.1,64.9,29.88,SSE,168,4.3,10.4,66,0.00,FEW,,0.00,0.0,WeatherDisplay:10.37,2013-07-06 06:01:00,
2013-07-06 01:06:00,77.1,64.9,29.88,South,179,3.4,6.0,66,0.00,BKN,,0.00,0.0,WeatherDisplay:10.37,2013-07-06 06:06:00,
2013-07-06 01:11:00,77.1,64.9,29.88,South,175,3.4,5.0,66,0.00,BKN,,0.00,0.0,WeatherDisplay:10.37,2013-07-06 06:11:00,
2013-07-06 01:16:00,77.1,64.9,29.89,SW,231,6.0,9.2,66,0.00,BKN,,0.00,0.0,WeatherDisplay:10.37,2013-07-06 06:16:00,
2013-07-06 01:21:00,77.1,64.9,29.88,SSE,164,5.7,11.0,66,0.00,BKN,,0.00,0.0,WeatherDisplay:10.37,2013-07-06 06:21:00,
2013-07-06 01:26:00,77.1,64.9,29.88,SSW,205,4.0,6.0,66,0.00,BKN,,0.00,0.0,WeatherDisplay:10.37,2013-07-06 06:26:00,
2013-07-06 01:31:00,77.1,64.9,29.88,SSE,161,4.1,8.1,66,0.00,BKN,,0.00,0.0,WeatherDisplay:10.37,2013-07-06 06:31:00,
2013-07-06 01:36:00,77.1,64.9,29.88,SW,217,3.7,6.0,66,0.00,BKN,,0.00,0.0,WeatherDisplay:10.37,2013-07-06 06:36:00,
2013-07-06 01:41:00,77.0,64.8,29.88,SW,229,3.7,8.0,66,0.00,BKN,,0.00,0.0,WeatherDisplay:10.37,2013-07-06 06:41:00,
2013-07-06 01:46:00,77.1,64.9,29.88,SSW,201,5.0,8.1,66,0.00,BKN,,0.00,0.0,WeatherDisplay:10.37,2013-07-06 06:46:00,
2013-07-06 01:51:00,77.0,65.2,29.88,SW,231,3.5,7.0,67,0.00,BKN,,0.00,0.0,WeatherDisplay:10.37,2013-07-06 06:51:00,
2013-07-06 01:56:00,76.9,65.1,29.88,South,178,3.6,7.0,67,0.00,BKN,,0.00,0.0,WeatherDisplay:10.37,2013-07-06 06:56:00,
2013-07-06 02:01:00,76.9,65.1,29.88,SSW,198,4.0,7.0,67,0.00,BKN,,0.00,0.0,WeatherDisplay:10.37,2013-07-06 07:01:00,
2013-07-06 02:06:00,76.7,64.9,29.88,South,182,1.4,4.6,67,0.00,BKN,,0.00,0.0,WeatherDisplay:10.37,2013-07-06 07:06:00,
2013-07-06 02:11:00,76.8,65.0,29.88,South,187,4.2,8.1,67,0.00,BKN,,0.00,0.0,WeatherDisplay:10.37,2013-07-06 07:11:00,
2013-07-06 02:16:00,76.7,65.3,29.88,South,187,2.4,4.0,68,0.00,BKN,,0.00,0.0,WeatherDisplay:10.37,2013-07-06 07:16:00,
2013-07-06 02:21:00,76.6,65.7,29.88,South,170,0.3,4.6,69,0.00,BKN,,0.00,0.0,WeatherDisplay:10.37,2013-07-06 07:21:00,
2013-07-06 02:26:00,76.2,65.7,29.88,South,190,1.8,3.5,70,0.00,BKN,,0.00,0.0,WeatherDisplay:10.37,2013-07-06 07:26:00,
2013-07-06 02:31:00,76.0,65.5,29.88,SSE,167,2.0,4.0,70,0.00,BKN,,0.00,0.0,WeatherDisplay:10.37,2013-07-06 07:31:00,
2013-07-06 02:36:00,75.9,65.4,29.88,South,175,1.7,5.8,70,0.00,BKN,,0.00,0.0,WeatherDisplay:10.37,2013-07-06 07:36:00,
2013-07-06 02:41:00,75.6,65.1,29.88,South,178,0.0,0.0,70,0.00,BKN,,0.00,0.0,WeatherDisplay:10.37,2013-07-06 07:41:00,
2013-07-06 02:46:00,75.4,64.9,29.88,SSE,158,0.3,2.3,70,0.00,BKN,,0.00,0.0,WeatherDisplay:10.37,2013-07-06 07:46:00,
2013-07-06 02:51:00,75.2,64.7,29.88,SE,142,1.1,4.0,70,0.00,BKN,,0.00,0.0,WeatherDisplay:10.37,2013-07-06 07:51:00,
2013-07-06 02:56:00,75.1,64.6,29.88,South,174,2.6,5.0,70,0.00,BKN,,0.00,0.0,WeatherDisplay:10.37,2013-07-06 07:56:00,
2013-07-06 03:01:00,75.1,64.6,29.88,SE,130,0.3,4.6,70,0.00,BKN,,0.00,0.0,WeatherDisplay:10.37,2013-07-06 08:01:00,
2013-07-06 03:06:00,74.8,64.8,29.89,SE,132,0.5,1.2,71,0.00,CLR,,0.00,0.0,WeatherDisplay:10.37,2013-07-06 08:06:00,
2013-07-06 03:11:00,74.7,64.7,29.88,SSE,148,1.2,6.9,71,0.00,CLR,,0.00,0.0,WeatherDisplay:10.37,2013-07-06 08:11:00,
2013-07-06 03:16:00,74.6,65.0,29.89,SSW,194,1.4,3.5,72,0.00,CLR,,0.00,0.0,WeatherDisplay:10.37,2013-07-06 08:16:00,
2013-07-06 03:21:00,74.3,64.7,29.88,SSE,155,2.2,5.0,72,0.00,CLR,,0.00,0.0,WeatherDisplay:10.37,2013-07-06 08:21:00,
2013-07-06 03:26:00,74.3,65.1,29.88,SSW,195,1.5,4.0,73,0.00,CLR,,0.00,0.0,WeatherDisplay:10.37,2013-07-06 08:26:00,
2013-07-06 03:31:00,74.2,65.0,29.88,South,178,1.6,4.6,73,0.00,CLR,,0.00,0.0,WeatherDisplay:10.37,2013-07-06 08:31:00,
2013-07-06 03:36:00,74.3,65.5,29.88,South,174,2.4,5.8,74,0.00,CLR,,0.00,0.0,WeatherDisplay:10.37,2013-07-06 08:36:00,
2013-07-06 03:41:00,74.3,65.5,29.88,South,183,1.6,7.0,74,0.00,CLR,,0.00,0.0,WeatherDisplay:10.37,2013-07-06 08:41:00,
2013-07-06 03:46:00,74.4,65.6,29.88,SSE,161,0.3,2.3,74,0.00,CLR,,0.00,0.0,WeatherDisplay:10.37,2013-07-06 08:46:00,
2013-07-06 03:51:00,74.2,65.4,29.88,South,178,1.8,4.0,74,0.00,CLR,,0.00,0.0,WeatherDisplay:10.37,2013-07-06 08:51:00,
2013-07-06 03:56:00,74.1,64.9,29.88,SE,142,0.5,3.5,73,0.00,CLR,,0.00,0.0,WeatherDisplay:10.37,2013-07-06 08:56:00,
2013-07-06 04:01:00,73.9,64.7,29.88,SSE,150,1.5,5.0,73,0.00,CLR,,0.00,0.0,WeatherDisplay:10.37,2013-07-06 09:01:00,
2013-07-06 04:06:00,73.6,64.4,29.88,South,178,1.4,5.0,73,0.00,CLR,,0.00,0.0,WeatherDisplay:10.37,2013-07-06 09:06:00,
2013-07-06 04:11:00,73.7,64.9,29.88,South,191,1.2,4.0,74,0.00,CLR,,0.00,0.0,WeatherDisplay:10.37,2013-07-06 09:11:00,
2013-07-06 04:16:00,73.7,64.9,29.88,SSW,196,1.9,3.5,74,0.00,CLR,,0.00,0.0,WeatherDisplay:10.37,2013-07-06 09:16:00,
2013-07-06 04:21:00,73.8,65.0,29.88,SSW,206,2.6,5.0,74,0.00,CLR,,0.00,0.0,WeatherDisplay:10.37,2013-07-06 09:21:00,
2013-07-06 04:26:00,73.8,65.0,29.88,South,173,2.8,9.0,74,0.00,CLR,,0.00,0.0,WeatherDisplay:10.37,2013-07-06 09:26:00,
2013-07-06 04:31:00,73.7,64.9,29.88,South,180,2.1,5.8,74,0.00,CLR,,0.00,0.0,WeatherDisplay:10.37,2013-07-06 09:31:00,
2013-07-06 04:36:00,73.7,64.9,29.88,SSW,205,2.1,4.6,74,0.00,CLR,,0.00,0.0,WeatherDisplay:10.37,2013-07-06 09:36:00,
2013-07-06 04:41:00,73.6,64.8,29.88,South,183,2.8,5.0,74,0.00,CLR,,0.00,0.0,WeatherDisplay:10.37,2013-07-06 09:41:00,
2013-07-06 04:46:00,73.4,65.0,29.88,South,185,1.8,3.5,75,0.00,CLR,,0.00,0.0,WeatherDisplay:10.37,2013-07-06 09:46:00,
2013-07-06 04:51:00,73.4,65.0,29.88,SE,131,0.7,3.5,75,0.00,CLR,,0.00,0.0,WeatherDisplay:10.37,2013-07-06 09:51:00,
2013-07-06 04:56:00,73.3,64.5,29.88,SE,138,1.2,5.0,74,0.00,CLR,,0.00,0.0,WeatherDisplay:10.37,2013-07-06 09:56:00,
2013-07-06 05:01:00,73.1,64.3,29.88,South,173,1.4,5.0,74,0.00,CLR,,0.00,0.0,WeatherDisplay:10.37,2013-07-06 10:01:00,
2013-07-06 05:06:00,73.3,64.1,29.88,SSE,153,1.0,3.5,73,0.00,FEW,,0.00,0.0,WeatherDisplay:10.37,2013-07-06 10:06:00,
2013-07-06 05:11:00,73.1,63.9,29.88,South,172,0.5,3.5,73,0.00,FEW,,0.00,0.0,WeatherDisplay:10.37,2013-07-06 10:11:00,
2013-07-06 05:16:00,73.0,63.8,29.88,South,178,0.7,3.5,73,0.00,FEW,,0.00,0.0,WeatherDisplay:10.37,2013-07-06 10:16:00,
2013-07-06 05:21:00,72.8,64.0,29.88,SE,140,0.6,3.5,74,0.00,FEW,,0.00,0.0,WeatherDisplay:10.37,2013-07-06 10:21:00,
2013-07-06 05:26:00,72.5,64.1,29.88,South,186,0.4,5.0,75,0.00,FEW,,0.00,0.0,WeatherDisplay:10.37,2013-07-06 10:26:00,
2013-07-06 05:31:00,72.6,64.2,29.89,South,184,0.7,3.5,75,0.00,FEW,,0.00,0.0,WeatherDisplay:10.37,2013-07-06 10:31:00,
2013-07-06 05:36:00,72.6,64.2,29.89,SSE,152,0.3,2.3,75,0.00,FEW,,0.00,5.0,WeatherDisplay:10.37,2013-07-06 10:36:00,
2013-07-06 05:41:00,72.6,64.2,29.89,South,188,1.8,3.5,75,0.00,FEW,,0.00,5.0,WeatherDisplay:10.37,2013-07-06 10:41:00,
2013-07-06 05:46:00,72.4,64.0,29.89,SW,223,2.3,4.0,75,0.00,FEW,,0.00,7.0,WeatherDisplay:10.37,2013-07-06 10:46:00,
2013-07-06 05:51:00,72.5,64.1,29.89,SSW,196,2.9,8.0,75,0.00,FEW,,0.00,7.0,WeatherDisplay:10.37,2013-07-06 10:51:00,
2013-07-06 05:56:00,72.5,64.1,29.89,South,188,2.2,5.0,75,0.00,FEW,,0.00,7.0,WeatherDisplay:10.37,2013-07-06 10:56:00,
2013-07-06 06:01:00,72.6,63.8,29.89,South,173,1.0,8.0,74,0.00,CLR,,0.00,12.0,WeatherDisplay:10.37,2013-07-06 11:01:00,
2013-07-06 06:06:00,72.6,63.8,29.89,SSW,202,3.3,5.8,74,0.00,CLR,,0.00,16.0,WeatherDisplay:10.37,2013-07-06 11:06:00,
2013-07-06 06:11:00,72.5,63.7,29.89,SSE,168,3.0,7.0,74,0.00,CLR,,0.00,21.0,WeatherDisplay:10.37,2013-07-06 11:11:00,
2013-07-06 06:16:00,72.5,63.7,29.89,SSE,164,2.5,4.0,74,0.00,CLR,,0.00,26.0,WeatherDisplay:10.37,2013-07-06 11:16:00,
2013-07-06 06:21:00,72.4,63.6,29.89,South,172,3.5,5.0,74,0.00,CLR,,0.00,28.0,WeatherDisplay:10.37,2013-07-06 11:21:00,
2013-07-06 06:26:00,72.5,63.4,29.90,SSE,167,5.8,9.2,73,0.00,CLR,,0.00,30.0,WeatherDisplay:10.37,2013-07-06 11:26:00,
2013-07-06 06:31:00,72.5,63.4,29.90,SSW,194,1.6,3.5,73,0.00,CLR,,0.00,40.0,WeatherDisplay:10.37,2013-07-06 11:31:00,
2013-07-06 06:36:00,72.5,63.0,29.89,SSE,159,5.8,9.2,72,0.00,CLR,,0.00,42.0,WeatherDisplay:10.37,2013-07-06 11:36:00,
2013-07-06 06:41:00,72.5,63.4,29.89,South,178,4.3,6.0,73,0.00,CLR,,0.00,44.0,WeatherDisplay:10.37,2013-07-06 11:41:00,
2013-07-06 06:46:00,72.4,63.6,29.89,South,186,2.2,5.0,74,0.00,CLR,,0.00,72.0,WeatherDisplay:10.37,2013-07-06 11:46:00,
2013-07-06 06:51:00,72.6,63.4,29.89,South,170,4.7,9.2,73,0.00,CLR,,0.00,77.0,WeatherDisplay:10.37,2013-07-06 11:51:00,
2013-07-06 06:56:00,72.6,63.8,29.89,South,184,4.1,6.0,74,0.00,CLR,,0.00,83.0,WeatherDisplay:10.37,2013-07-06 11:56:00,
2013-07-06 07:01:00,72.8,63.6,29.89,SW,222,3.0,6.0,73,0.00,CLR,,0.00,139.0,WeatherDisplay:10.37,2013-07-06 12:01:00,
2013-07-06 07:06:00,72.9,63.3,29.89,South,188,3.6,6.0,72,0.00,CLR,,0.00,137.0,WeatherDisplay:10.37,2013-07-06 12:06:00,
2013-07-06 07:11:00,73.0,63.4,29.89,South,182,4.9,8.1,72,0.00,CLR,,0.00,98.0,WeatherDisplay:10.37,2013-07-06 12:11:00,
2013-07-06 07:16:00,73.1,63.1,29.89,SSW,194,3.7,6.0,71,0.00,CLR,,0.00,104.0,WeatherDisplay:10.37,2013-07-06 12:16:00,
2013-07-06 07:21:00,73.1,63.5,29.89,SSE,164,4.1,9.0,72,0.00,CLR,,0.00,109.0,WeatherDisplay:10.37,2013-07-06 12:21:00,
2013-07-06 07:26:00,73.2,63.6,29.89,SSE,148,4.1,7.0,72,0.00,CLR,,0.00,97.0,WeatherDisplay:10.37,2013-07-06 12:26:00,
2013-07-06 07:31:00,73.3,63.7,29.89,SSW,194,3.8,7.0,72,0.00,CLR,,0.00,100.0,WeatherDisplay:10.37,2013-07-06 12:31:00,
2013-07-06 07:36:00,73.3,63.7,29.89,SW,215,2.1,6.0,72,0.00,CLR,,0.00,93.0,WeatherDisplay:10.37,2013-07-06 12:36:00,
2013-07-06 07:41:00,73.4,63.8,29.90,South,175,4.5,7.0,72,0.00,CLR,,0.00,100.0,WeatherDisplay:10.37,2013-07-06 12:41:00,
2013-07-06 07:46:00,73.4,63.8,29.90,SW,221,3.2,6.0,72,0.00,CLR,,0.00,113.0,WeatherDisplay:10.37,2013-07-06 12:46:00,
2013-07-06 07:51:00,73.5,63.9,29.90,SW,214,3.3,6.0,72,0.00,CLR,,0.00,128.0,WeatherDisplay:10.37,2013-07-06 12:51:00,
2013-07-06 07:56:00,73.6,64.0,29.90,South,185,3.0,11.0,72,0.00,CLR,,0.00,135.0,WeatherDisplay:10.37,2013-07-06 12:56:00,
2013-07-06 08:01:00,73.6,64.0,29.90,SSE,153,4.6,9.2,72,0.00,CLR,,0.00,109.0,WeatherDisplay:10.37,2013-07-06 13:01:00,
2013-07-06 08:06:00,73.6,64.0,29.90,SSE,162,3.3,11.0,72,0.00,CLR,,0.00,100.0,WeatherDisplay:10.37,2013-07-06 13:06:00,
2013-07-06 08:11:00,73.6,64.0,29.90,South,173,4.0,7.0,72,0.00,CLR,,0.00,98.0,WeatherDisplay:10.37,2013-07-06 13:11:00,
2013-07-06 08:16:00,73.5,64.3,29.90,SSW,206,2.7,5.0,73,0.00,CLR,,0.00,107.0,WeatherDisplay:10.37,2013-07-06 13:16:00,
2013-07-06 08:21:00,73.4,64.2,29.90,SSW,205,2.8,8.1,73,0.00,CLR,,0.00,107.0,WeatherDisplay:10.37,2013-07-06 13:21:00,
2013-07-06 08:26:00,73.3,64.1,29.90,South,178,3.5,6.0,73,0.00,CLR,,0.00,104.0,WeatherDisplay:10.37,2013-07-06 13:26:00,
2013-07-06 08:31:00,73.2,64.4,29.90,SSW,209,2.8,5.0,74,0.00,CLR,,0.00,102.0,WeatherDisplay:10.37,2013-07-06 13:31:00,
2013-07-06 08:37:00,73.1,64.3,29.90,SSE,149,4.5,7.0,74,0.00,CLR,,0.00,86.0,WeatherDisplay:10.37,2013-07-06 13:37:00,
2013-07-06 08:42:00,73.0,64.6,29.90,SSE,161,5.5,9.2,75,0.00,CLR,,0.00,83.0,WeatherDisplay:10.37,2013-07-06 13:42:00,
2013-07-06 08:47:00,72.9,64.9,29.90,South,183,1.5,3.5,76,0.00,CLR,,0.00,88.0,WeatherDisplay:10.37,2013-07-06 13:47:00,
2013-07-06 08:52:00,72.9,64.9,29.90,SSE,164,4.2,8.1,76,0.00,CLR,,0.00,102.0,WeatherDisplay:10.37,2013-07-06 13:52:00,
2013-07-06 08:57:00,72.9,65.3,29.90,SW,214,3.4,5.0,77,0.00,CLR,,0.00,130.0,WeatherDisplay:10.37,2013-07-06 13:57:00,
2013-07-06 09:02:00,72.9,65.6,29.90,South,184,3.2,5.8,78,0.00,CLR,,0.00,135.0,WeatherDisplay:10.37,2013-07-06 14:02:00,
2013-07-06 09:07:00,72.7,65.8,29.91,South,187,3.1,6.0,79,0.00,CLR,,0.00,109.0,WeatherDisplay:10.37,2013-07-06 14:07:00,
2013-07-06 09:12:00,72.1,65.9,29.90,South,186,5.3,9.2,81,0.00,CLR,,0.00,83.0,WeatherDisplay:10.37,2013-07-06 14:12:00,
2013-07-06 09:17:00,71.6,66.2,29.91,SSW,209,3.4,7.0,83,0.00,CLR,,0.00,70.0,WeatherDisplay:10.37,2013-07-06 14:17:00,
2013-07-06 09:22:00,71.0,66.3,29.91,South,180,1.4,3.5,85,0.00,CLR,,0.00,69.0,WeatherDisplay:10.37,2013-07-06 14:22:00,
2013-07-06 09:27:00,70.6,66.5,29.91,SSE,160,1.5,3.5,87,0.01,RA,,0.01,69.0,WeatherDisplay:10.37,2013-07-06 14:27:00,
2013-07-06 09:32:00,70.3,66.6,29.91,South,179,1.1,3.5,88,0.01,RA,,0.01,67.0,WeatherDisplay:10.37,2013-07-06 14:32:00,
2013-07-06 09:37:00,70.0,66.3,29.90,SSE,167,1.2,4.0,88,0.01,CLR,,0.01,74.0,WeatherDisplay:10.37,2013-07-06 14:37:00,
2013-07-06 09:42:00,69.7,66.3,29.90,SE,140,0.6,2.3,89,0.01,CLR,,0.01,86.0,WeatherDisplay:10.37,2013-07-06 14:42:00,
2013-07-06 09:47:00,69.5,66.1,29.90,SSE,158,1.8,4.0,89,0.01,CLR,,0.01,90.0,WeatherDisplay:10.37,2013-07-06 14:47:00,
2013-07-06 09:52:00,69.4,66.3,29.89,SSE,168,1.0,2.3,90,0.01,CLR,,0.01,86.0,WeatherDisplay:10.37,2013-07-06 14:52:00,
2013-07-06 09:57:00,69.3,66.2,29.89,South,175,1.7,3.5,90,0.01,CLR,,0.01,88.0,WeatherDisplay:10.37,2013-07-06 14:57:00,
2013-07-06 10:02:00,69.4,66.7,29.88,South,182,1.7,4.0,91,0.01,FEW,,0.01,84.0,WeatherDisplay:10.37,2013-07-06 15:02:00,
2013-07-06 10:07:00,69.4,66.7,29.88,South,183,0.8,2.3,91,0.01,FEW,,0.01,69.0,WeatherDisplay:10.37,2013-07-06 15:07:00,
2013-07-06 10:12:00,69.3,66.9,29.88,South,183,2.1,5.0,92,0.01,FEW,,0.01,67.0,WeatherDisplay:10.37,2013-07-06 15:12:00,
2013-07-06 10:17:00,69.2,66.8,29.88,South,173,1.2,3.5,92,0.01,FEW,,0.01,83.0,WeatherDisplay:10.37,2013-07-06 15:17:00,
2013-07-06 10:22:00,69.1,66.4,29.87,East,84,1.3,3.5,91,0.01,FEW,,0.01,88.0,WeatherDisplay:10.37,2013-07-06 15:22:00,
2013-07-06 10:27:00,69.2,66.5,29.88,SSW,213,2.9,5.0,91,0.00,FEW,,0.01,107.0,WeatherDisplay:10.37,2013-07-06 15:27:00,
2013-07-06 10:32:00,69.3,66.6,29.90,South,178,5.4,8.1,91,0.00,FEW,,0.01,127.0,WeatherDisplay:10.37,2013-07-06 15:32:00,
2013-07-06 10:37:00,69.6,67.2,29.89,South,177,3.3,7.0,92,0.00,FEW,,0.01,167.0,WeatherDisplay:10.37,2013-07-06 15:37:00,
2013-07-06 10:42:00,69.6,66.9,29.89,South,190,4.0,8.1,91,0.00,FEW,,0.01,193.0,WeatherDisplay:10.37,2013-07-06 15:42:00,
2013-07-06 10:47:00,69.8,67.1,29.90,South,190,2.2,4.6,91,0.00,FEW,,0.01,204.0,WeatherDisplay:10.37,2013-07-06 15:47:00,
2013-07-06 10:52:00,70.1,67.0,29.90,South,173,1.2,4.0,90,0.00,FEW,,0.01,204.0,WeatherDisplay:10.37,2013-07-06 15:52:00,
2013-07-06 10:57:00,70.3,66.9,29.90,SSE,165,4.7,8.1,89,0.00,FEW,,0.01,151.0,WeatherDisplay:10.37,2013-07-06 15:57:00,
2013-07-06 11:02:00,70.3,66.9,29.90,South,171,2.6,4.6,89,0.00,-RA,,0.01,139.0,WeatherDisplay:10.37,2013-07-06 16:02:00,
2013-07-06 11:07:00,70.4,67.0,29.90,South,173,1.9,4.0,89,0.00,-RA,,0.01,174.0,WeatherDisplay:10.37,2013-07-06 16:07:00,
2013-07-06 11:12:00,70.5,67.1,29.90,SE,142,1.3,4.0,89,0.00,-RA,,0.01,202.0,WeatherDisplay:10.37,2013-07-06 16:12:00,
2013-07-06 11:17:00,70.9,67.2,29.90,SSW,209,1.7,3.5,88,0.00,-RA,,0.01,227.0,WeatherDisplay:10.37,2013-07-06 16:17:00,
2013-07-06 11:22:00,71.1,67.0,29.90,South,182,1.1,4.0,87,0.00,-RA,,0.01,190.0,WeatherDisplay:10.37,2013-07-06 16:22:00,
2013-07-06 11:27:00,71.4,67.0,29.90,South,186,0.3,4.6,86,0.00,-RA,,0.01,179.0,WeatherDisplay:10.37,2013-07-06 16:27:00,
2013-07-06 11:32:00,71.6,67.2,29.90,SW,229,0.6,3.5,86,0.00,-RA,,0.01,190.0,WeatherDisplay:10.37,2013-07-06 16:32:00,
2013-07-06 11:37:00,71.7,67.3,29.89,SE,134,0.3,2.3,86,0.00,-RA,,0.01,232.0,WeatherDisplay:10.37,2013-07-06 16:37:00,
2013-07-06 11:44:00,71.8,67.0,29.90,West,279,1.1,3.5,85,0.00,-RA,,0.01,264.0,WeatherDisplay:10.37,2013-07-06 16:44:00,
2013-07-06 11:49:00,72.3,67.5,29.90,West,279,0.1,1.2,85,0.00,-RA,,0.01,271.0,WeatherDisplay:10.37,2013-07-06 16:49:00,
2013-07-06 11:55:00,72.7,67.3,29.90,SW,220,1.0,4.0,83,0.00,-RA,-RA,0.01,285.0,WeatherDisplay:10.37,2013-07-06 16:55:00,
2013-07-06 12:01:00,73.0,67.9,29.90,NNW,337,0.7,2.3,84,0.00,-RA,,0.01,302.0,WeatherDisplay:10.37,2013-07-06 17:01:00,
2013-07-06 12:06:00,73.5,68.0,29.90,South,178,1.1,3.5,83,0.00,CLR,,0.01,417.0,WeatherDisplay:10.37,2013-07-06 17:06:00,
2013-07-06 12:11:00,74.1,67.9,29.90,South,171,2.4,5.0,81,0.00,CLR,,0.01,496.0,WeatherDisplay:10.37,2013-07-06 17:11:00,
2013-07-06 12:16:00,74.7,68.5,29.90,South,182,3.5,8.0,81,0.00,CLR,,0.01,455.0,WeatherDisplay:10.37,2013-07-06 17:16:00,
2013-07-06 12:22:00,75.2,69.0,29.90,SSW,200,2.4,6.0,81,0.00,CLR,,0.01,406.0,WeatherDisplay:10.37,2013-07-06 17:22:00,
2013-07-06 12:30:00,75.5,68.5,29.90,South,184,0.0,5.0,79,0.00,CLR,CLR,0.01,213.0,WeatherDisplay:10.37,2013-07-06 17:30:00,
2013-07-06 12:35:00,75.2,68.6,29.90,South,176,2.0,6.0,80,0.00,CLR,CLR,0.01,172.0,WeatherDisplay:10.37,2013-07-06 17:35:00,
2013-07-06 12:40:00,74.8,68.2,29.90,South,171,1.0,6.0,80,0.00,CLR,CLR,0.01,141.0,WeatherDisplay:10.37,2013-07-06 17:40:00,
2013-07-06 12:45:00,74.6,67.7,29.90,South,181,2.0,6.0,79,0.00,CLR,CLR,0.01,160.0,WeatherDisplay:10.37,2013-07-06 17:45:00,
2013-07-06 12:51:00,74.6,68.0,29.90,South,178,1.5,5.0,80,0.00,CLR,,0.01,248.0,WeatherDisplay:10.37,2013-07-06 17:51:00,
2013-07-06 12:56:00,74.9,68.7,29.90,South,178,0.3,2.3,81,0.00,CLR,,0.01,327.0,WeatherDisplay:10.37,2013-07-06 17:56:00,
2013-07-06 13:02:00,75.6,68.3,29.90,SSW,203,0.7,3.0,78,0.00,CLR,,0.01,424.0,WeatherDisplay:10.37,2013-07-06 18:02:00,
2013-07-06 13:10:00,76.4,68.7,29.90,South,186,1.0,5.0,77,0.00,CLR,CLR,0.01,510.0,WeatherDisplay:10.37,2013-07-06 18:10:00,
2013-07-06 13:15:00,77.0,68.5,29.90,South,188,2.0,4.0,75,0.00,CLR,CLR,0.01,540.0,WeatherDisplay:10.37,2013-07-06 18:15:00,
2013-07-06 13:20:00,77.6,69.1,29.89,South,172,3.0,6.0,75,0.00,RA,RA,0.02,705.0,WeatherDisplay:10.37,2013-07-06 18:20:00,
2013-07-06 13:25:00,78.2,68.8,29.89,SSE,155,2.0,8.0,73,0.00,RA,RA,0.02,705.0,WeatherDisplay:10.37,2013-07-06 18:25:00,
2013-07-06 13:31:00,78.6,68.4,29.89,ESE,119,3.0,4.6,71,0.01,CLR,,0.02,432.0,WeatherDisplay:10.37,2013-07-06 18:31:00,
2013-07-06 13:36:00,78.5,68.3,29.89,South,186,2.5,6.0,71,0.01,CLR,,0.02,422.0,WeatherDisplay:10.37,2013-07-06 18:36:00,
2013-07-06 13:42:00,78.8,68.6,29.89,South,184,1.8,3.0,71,0.01,CLR,,0.02,438.0,WeatherDisplay:10.37,2013-07-06 18:42:00,
2013-07-06 13:47:00,78.9,69.1,29.89,South,178,1.6,5.0,72,0.01,CLR,,0.02,355.0,WeatherDisplay:10.37,2013-07-06 18:47:00,
2013-07-06 13:52:00,78.8,68.6,29.89,SSW,200,2.6,3.5,71,0.01,CLR,,0.02,355.0,WeatherDisplay:10.37,2013-07-06 18:52:00,
2013-07-06 13:57:00,78.9,69.1,29.89,South,180,1.7,3.5,72,0.01,CLR,,0.02,413.0,WeatherDisplay:10.37,2013-07-06 18:57:00,
2013-07-06 14:02:00,79.1,69.3,29.89,South,184,0.3,1.2,72,0.01,FEW,,0.02,383.0,WeatherDisplay:10.37,2013-07-06 19:02:00,
2013-07-06 14:07:00,79.2,69.4,29.89,SSW,201,3.3,7.0,72,0.01,FEW,,0.02,292.0,WeatherDisplay:10.37,2013-07-06 19:07:00,
2013-07-06 14:13:00,79.2,69.4,29.89,SE,130,1.7,3.5,72,0.01,FEW,,0.02,267.0,WeatherDisplay:10.37,2013-07-06 19:13:00,
2013-07-06 14:18:00,79.3,69.9,29.89,SSE,165,0.8,3.5,73,0.00,FEW,,0.02,304.0,WeatherDisplay:10.37,2013-07-06 19:18:00,
2013-07-06 14:23:00,79.7,69.9,29.89,SE,144,1.0,3.5,72,0.00,FEW,,0.02,369.0,WeatherDisplay:10.37,2013-07-06 19:23:00,
2013-07-06 14:29:00,79.7,69.5,29.89,South,185,1.2,3.5,71,0.00,FEW,,0.02,388.0,WeatherDisplay:10.37,2013-07-06 19:29:00,
2013-07-06 14:34:00,79.6,69.8,29.88,SE,140,2.5,6.9,72,0.00,FEW,,0.02,325.0,WeatherDisplay:10.37,2013-07-06 19:34:00,
2013-07-06 14:39:00,79.5,69.7,29.88,SE,134,1.1,4.0,72,0.00,FEW,,0.02,311.0,WeatherDisplay:10.37,2013-07-06 19:39:00,
2013-07-06 14:44:00,79.4,70.0,29.89,South,171,1.1,5.0,73,0.00,FEW,,0.02,325.0,WeatherDisplay:10.37,2013-07-06 19:44:00,
2013-07-06 14:49:00,79.7,69.9,29.89,South,171,1.1,2.3,72,0.00,FEW,,0.02,320.0,WeatherDisplay:10.37,2013-07-06 19:49:00,
2013-07-06 14:54:00,80.2,70.8,29.89,SSE,165,0.4,3.0,73,0.00,FEW,,0.02,276.0,WeatherDisplay:10.37,2013-07-06 19:54:00,
2013-07-06 14:59:00,80.2,70.8,29.89,SE,132,0.1,3.5,73,0.00,FEW,,0.02,272.0,WeatherDisplay:10.37,2013-07-06 19:59:00,
2013-07-06 15:04:00,80.0,70.2,29.89,South,178,0.3,2.3,72,0.00,CLR,,0.02,195.0,WeatherDisplay:10.37,2013-07-06 20:04:00,
2013-07-06 15:10:00,79.6,69.8,29.90,South,179,1.0,4.0,72,0.00,CLR,CLR,0.02,165.0,WeatherDisplay:10.37,2013-07-06 20:10:00,
2013-07-06 15:15:00,79.1,70.9,29.90,South,178,0.0,3.0,76,0.00,CLR,CLR,0.02,171.0,WeatherDisplay:10.37,2013-07-06 20:15:00,
2013-07-06 15:20:00,78.9,70.7,29.89,South,178,0.0,0.0,76,0.00,CLR,,0.02,193.0,WeatherDisplay:10.37,2013-07-06 20:20:00,
2013-07-06 15:26:00,78.9,70.3,29.90,South,178,0.3,1.2,75,0.00,CLR,,0.02,218.0,WeatherDisplay:10.37,2013-07-06 20:26:00,
2013-07-06 15:31:00,79.0,70.8,29.90,South,178,0.0,0.0,76,0.00,CLR,,0.02,195.0,WeatherDisplay:10.37,2013-07-06 20:31:00,
2013-07-06 15:37:00,79.0,70.4,29.90,South,178,0.1,1.2,75,0.00,CLR,,0.02,200.0,WeatherDisplay:10.37,2013-07-06 20:37:00,
2013-07-06 15:42:00,79.1,70.9,29.90,South,178,0.0,1.2,76,0.00,CLR,,0.02,214.0,WeatherDisplay:10.37,2013-07-06 20:42:00,
2013-07-06 15:47:00,79.1,70.5,29.90,South,178,0.0,0.0,75,0.00,CLR,,0.02,260.0,WeatherDisplay:10.37,2013-07-06 20:47:00,
2013-07-06 15:53:00,79.6,70.6,29.90,South,178,0.4,1.2,74,0.00,CLR,,0.02,281.0,WeatherDisplay:10.37,2013-07-06 20:53:00,
2013-07-06 15:58:00,79.8,71.2,29.90,South,178,0.3,2.0,75,0.00,CLR,,0.02,285.0,WeatherDisplay:10.37,2013-07-06 20:58:00,
2013-07-06 16:03:00,80.1,70.3,29.90,South,178,0.0,0.0,72,0.00,-RA,,0.02,279.0,WeatherDisplay:10.37,2013-07-06 21:03:00,
2013-07-06 16:09:00,80.2,71.2,29.90,South,178,0.1,1.2,74,0.00,-RA,,0.02,327.0,WeatherDisplay:10.37,2013-07-06 21:09:00,
2013-07-06 16:15:00,80.1,71.5,29.89,South,178,0.0,1.0,75,0.00,-RA,-RA,0.02,376.0,WeatherDisplay:10.37,2013-07-06 21:15:00,
2013-07-06 16:20:00,80.4,70.9,29.89,South,179,0.2,1.2,73,0.00,-RA,,0.02,283.0,WeatherDisplay:10.37,2013-07-06 21:20:00,
2013-07-06 16:26:00,80.4,70.9,29.89,NE,49,1.0,3.5,73,0.00,-RA,,0.02,239.0,WeatherDisplay:10.37,2013-07-06 21:26:00,
2013-07-06 16:31:00,80.1,70.7,29.89,ENE,77,0.1,1.2,73,0.00,-RA,,0.02,204.0,WeatherDisplay:10.37,2013-07-06 21:31:00,
2013-07-06 16:36:00,79.9,70.9,29.89,NE,40,0.0,0.0,74,0.00,-RA,,0.02,181.0,WeatherDisplay:10.37,2013-07-06 21:36:00,
2013-07-06 16:42:00,79.8,70.8,29.89,SE,135,0.2,1.2,74,0.00,-RA,,0.02,190.0,WeatherDisplay:10.37,2013-07-06 21:42:00,
2013-07-06 16:47:00,79.8,71.9,29.89,NE,42,0.6,2.0,77,0.00,-RA,,0.02,190.0,WeatherDisplay:10.37,2013-07-06 21:47:00,
2013-07-06 16:52:00,80.0,71.0,29.89,NE,48,0.1,1.2,74,0.00,-RA,,0.02,174.0,WeatherDisplay:10.37,2013-07-06 21:52:00,
2013-07-06 16:57:00,79.9,70.9,29.89,NE,34,0.0,1.2,74,0.00,-RA,,0.02,162.0,WeatherDisplay:10.37,2013-07-06 21:57:00,
2013-07-06 17:03:00,80.1,71.1,29.88,NE,53,0.2,1.2,74,0.00,FEW,,0.02,160.0,WeatherDisplay:10.37,2013-07-06 22:03:00,
2013-07-06 17:08:00,79.7,71.5,29.88,NE,53,0.2,1.2,76,0.00,FEW,,0.02,156.0,WeatherDisplay:10.37,2013-07-06 22:08:00,
2013-07-06 17:14:00,79.6,71.4,29.88,NE,53,0.0,0.0,76,0.00,FEW,,0.02,144.0,WeatherDisplay:10.37,2013-07-06 22:14:00,
2013-07-06 17:19:00,79.5,70.9,29.88,NE,53,0.0,1.2,75,0.00,FEW,,0.02,139.0,WeatherDisplay:10.37,2013-07-06 22:19:00,
2013-07-06 17:24:00,79.6,70.6,29.88,NE,53,0.0,0.0,74,0.00,FEW,,0.02,156.0,WeatherDisplay:10.37,2013-07-06 22:24:00,
2013-07-06 17:30:00,79.5,71.3,29.88,NE,53,0.0,1.0,76,0.00,FEW,FEW,0.02,162.0,WeatherDisplay:10.37,2013-07-06 22:30:00,
2013-07-06 17:35:00,79.4,71.5,29.88,NE,53,0.0,2.0,77,0.00,FEW,FEW,0.02,128.0,WeatherDisplay:10.37,2013-07-06 22:35:00,
2013-07-06 17:40:00,79.1,71.7,29.88,NE,53,0.0,1.0,78,0.00,FEW,FEW,0.02,113.0,WeatherDisplay:10.37,2013-07-06 22:40:00,
2013-07-06 17:45:00,79.2,71.7,29.88,NE,53,0.0,1.0,78,0.00,FEW,FEW,0.02,116.0,WeatherDisplay:10.37,2013-07-06 22:45:00,
2013-07-06 17:50:00,79.1,72.0,29.88,NE,53,0.0,0.0,79,0.00,FEW,,0.02,111.0,WeatherDisplay:10.37,2013-07-06 22:50:00,
2013-07-06 17:56:00,79.0,71.2,29.87,NE,53,0.0,1.2,77,0.00,FEW,,0.02,86.0,WeatherDisplay:10.37,2013-07-06 22:56:00,
2013-07-06 18:01:00,78.7,71.3,29.88,NE,49,0.2,1.2,78,0.00,BKN,,0.02,60.0,WeatherDisplay:10.37,2013-07-06 23:01:00,
2013-07-06 18:08:00,78.3,71.6,29.87,NE,51,0.5,2.0,80,0.00,BKN,,0.02,53.0,WeatherDisplay:10.37,2013-07-06 23:08:00,
2013-07-06 18:13:00,77.9,70.9,29.87,NE,51,0.0,0.0,79,0.00,BKN,,0.02,44.0,WeatherDisplay:10.37,2013-07-06 23:13:00,
2013-07-06 18:20:00,77.7,71.0,29.87,NE,51,0.0,1.0,80,0.00,BKN,BKN,0.02,30.0,WeatherDisplay:10.37,2013-07-06 23:20:00,
2013-07-06 18:25:00,77.6,71.7,29.87,NE,51,0.0,2.0,82,0.00,BKN,BKN,0.02,25.0,WeatherDisplay:10.37,2013-07-06 23:25:00,
2013-07-06 18:30:00,77.3,70.6,29.87,NE,51,0.0,2.0,80,0.00,BKN,BKN,0.02,28.0,WeatherDisplay:10.37,2013-07-06 23:30:00,
2013-07-06 18:35:00,77.2,71.3,29.87,NE,50,0.0,3.0,82,0.00,BKN,BKN,0.02,30.0,WeatherDisplay:10.37,2013-07-06 23:35:00,
2013-07-06 18:41:00,76.9,71.0,29.87,NNE,14,1.3,2.3,82,0.00,BKN,,0.02,44.0,WeatherDisplay:10.37,2013-07-06 23:41:00,
2013-07-06 18:47:00,76.9,71.3,29.87,NNE,22,1.4,3.5,83,0.00,BKN,,0.02,54.0,WeatherDisplay:10.37,2013-07-06 23:47:00,
2013-07-06 18:52:00,76.8,71.2,29.87,North,11,1.4,3.5,83,0.00,BKN,,0.02,54.0,WeatherDisplay:10.37,2013-07-06 23:52:00,
2013-07-06 18:57:00,76.8,71.2,29.87,NNE,12,0.7,2.3,83,0.00,BKN,,0.02,53.0,WeatherDisplay:10.37,2013-07-06 23:57:00,
2013-07-06 19:03:00,76.7,71.1,29.87,NNE,12,0.1,1.2,83,0.00,OVC,,0.02,35.0,WeatherDisplay:10.37,2013-07-07 00:03:00,
2013-07-06 19:08:00,76.7,71.1,29.87,North,11,0.0,1.2,83,0.00,OVC,,0.02,30.0,WeatherDisplay:10.37,2013-07-07 00:08:00,
2013-07-06 19:14:00,76.6,70.7,29.87,North,11,0.0,0.0,82,0.00,OVC,,0.02,30.0,WeatherDisplay:10.37,2013-07-07 00:14:00,
2013-07-06 19:20:00,76.4,71.2,29.87,NNE,14,1.0,2.0,84,0.00,OVC,OVC,0.02,33.0,WeatherDisplay:10.37,2013-07-07 00:20:00,
2013-07-06 19:25:00,76.3,71.1,29.86,NNE,19,0.0,1.0,84,0.00,OVC,OVC,0.02,37.0,WeatherDisplay:10.37,2013-07-07 00:25:00,
2013-07-06 19:33:00,76.3,70.4,29.86,NNE,22,0.1,1.0,82,0.00,OVC,,0.02,21.0,WeatherDisplay:10.37,2013-07-07 00:33:00,
2013-07-06 19:39:00,76.2,71.0,29.86,NNE,24,0.2,1.2,84,0.00,OVC,,0.02,18.0,WeatherDisplay:10.37,2013-07-07 00:39:00,
2013-07-06 19:44:00,76.1,70.9,29.86,NNE,20,0.5,1.2,84,0.00,OVC,,0.02,18.0,WeatherDisplay:10.37,2013-07-07 00:44:00,
2013-07-06 19:49:00,76.0,70.5,29.86,North,351,0.3,2.3,83,0.00,OVC,,0.02,16.0,WeatherDisplay:10.37,2013-07-07 00:49:00,
2013-07-06 19:54:00,75.8,69.2,29.86,North,351,0.0,0.0,80,0.00,OVC,,0.02,16.0,WeatherDisplay:10.37,2013-07-07 00:54:00,
2013-07-06 19:59:00,75.8,70.6,29.86,North,351,0.0,0.0,84,0.00,OVC,,0.02,16.0,WeatherDisplay:10.37,2013-07-07 00:59:00,
2013-07-06 20:04:00,75.6,70.4,29.86,North,351,0.1,1.2,84,0.00,FEW,,0.02,19.0,WeatherDisplay:10.37,2013-07-07 01:04:00,
2013-07-06 20:10:00,75.5,70.7,29.86,North,351,0.0,1.0,85,0.00,FEW,FEW,0.02,14.0,WeatherDisplay:10.37,2013-07-07 01:10:00,
2013-07-06 20:15:00,75.6,70.4,29.86,North,351,0.0,0.0,84,0.00,FEW,,0.02,11.0,WeatherDisplay:10.37,2013-07-07 01:15:00,
2013-07-06 20:20:00,75.6,70.8,29.86,North,350,0.0,2.0,85,0.00,FEW,,0.02,9.0,WeatherDisplay:10.37,2013-07-07 01:20:00,
2013-07-06 20:25:00,75.4,70.2,29.86,ENE,69,1.3,3.0,84,0.00,FEW,,0.02,11.0,WeatherDisplay:10.37,2013-07-07 01:25:00,
2013-07-06 20:30:00,75.2,70.7,29.85,ENE,66,0.4,2.0,86,0.00,FEW,,0.02,9.0,WeatherDisplay:10.37,2013-07-07 01:30:00,
2013-07-06 20:35:00,75.0,71.2,29.85,ENE,78,0.2,2.3,88,0.00,FEW,,0.02,7.0,WeatherDisplay:10.37,2013-07-07 01:35:00,
2013-07-06 20:40:00,74.8,71.0,29.85,ENE,58,1.4,2.3,88,0.00,FEW,,0.02,5.0,WeatherDisplay:10.37,2013-07-07 01:40:00,
2013-07-06 20:45:00,74.7,70.9,29.86,ENE,57,0.4,2.3,88,0.00,FEW,,0.02,0.0,WeatherDisplay:10.37,2013-07-07 01:45:00,
2013-07-06 20:50:00,74.8,71.0,29.86,ENE,57,0.0,1.2,88,0.00,FEW,,0.02,0.0,WeatherDisplay:10.37,2013-07-07 01:50:00,
2013-07-06 20:58:00,74.5,70.7,29.86,NE,56,0.0,0.0,88,0.00,FEW,,0.02,0.0,WeatherDisplay:10.37,2013-07-07 01:58:00,
2013-07-06 21:04:00,74.4,70.6,29.86,NE,56,0.0,0.0,88,0.00,FEW,,0.02,0.0,WeatherDisplay:10.37,2013-07-07 02:04:00,
2013-07-06 21:10:00,74.4,70.3,29.86,NE,56,0.0,0.0,87,0.00,FEW,FEW,0.02,0.0,WeatherDisplay:10.37,2013-07-07 02:10:00,
2013-07-06 21:15:00,74.2,70.5,29.86,NE,56,0.0,0.0,88,0.00,FEW,FEW,0.02,0.0,WeatherDisplay:10.37,2013-07-07 02:15:00,
2013-07-06 21:20:00,74.2,70.4,29.86,NE,56,0.0,0.0,88,0.00,FEW,,0.02,0.0,WeatherDisplay:10.37,2013-07-07 02:20:00,
2013-07-06 21:27:00,73.8,70.0,29.86,NE,56,0.1,1.2,88,0.00,FEW,,0.02,0.0,WeatherDisplay:10.37,2013-07-07 02:27:00,
2013-07-06 21:32:00,73.8,69.7,29.87,NE,56,0.0,1.2,87,0.00,FEW,,0.02,0.0,WeatherDisplay:10.37,2013-07-07 02:32:00,
2013-07-06 21:37:00,73.7,69.9,29.87,NE,56,0.0,0.0,88,0.00,FEW,,0.02,0.0,WeatherDisplay:10.37,2013-07-07 02:37:00,
2013-07-06 21:42:00,73.6,69.5,29.87,NE,56,0.0,0.0,87,0.00,FEW,,0.02,0.0,WeatherDisplay:10.37,2013-07-07 02:42:00,
2013-07-06 21:47:00,73.6,70.2,29.87,NE,56,0.0,0.0,89,0.00,FEW,,0.02,0.0,WeatherDisplay:10.37,2013-07-07 02:47:00,
2013-07-06 21:52:00,73.7,70.6,29.88,NE,56,0.0,1.2,90,0.00,FEW,,0.02,0.0,WeatherDisplay:10.37,2013-07-07 02:52:00,
2013-07-06 21:57:00,73.8,70.0,29.88,NE,56,0.0,0.0,88,0.00,FEW,,0.02,0.0,WeatherDisplay:10.37,2013-07-07 02:57:00,
2013-07-06 22:02:00,74.0,70.6,29.88,NW,323,1.5,3.5,89,0.00,CLR,,0.02,0.0,WeatherDisplay:10.37,2013-07-07 03:02:00,
2013-07-06 22:08:00,73.7,70.6,29.88,NW,322,0.3,1.2,90,0.00,CLR,,0.02,0.0,WeatherDisplay:10.37,2013-07-07 03:08:00,
2013-07-06 22:13:00,73.5,70.4,29.88,NW,323,0.0,0.0,90,0.00,CLR,,0.02,0.0,WeatherDisplay:10.37,2013-07-07 03:13:00,
2013-07-06 22:18:00,73.3,70.5,29.88,NW,322,0.0,0.0,91,0.00,CLR,,0.02,0.0,WeatherDisplay:10.37,2013-07-07 03:18:00,
2013-07-06 22:23:00,73.2,70.7,29.88,NW,323,0.0,0.0,92,0.00,CLR,,0.02,0.0,WeatherDisplay:10.37,2013-07-07 03:23:00,
2013-07-06 22:28:00,73.2,70.7,29.88,NW,322,0.6,2.3,92,0.00,CLR,,0.02,0.0,WeatherDisplay:10.37,2013-07-07 03:28:00,
2013-07-06 22:34:00,73.0,70.5,29.88,NW,323,0.1,2.3,92,0.00,CLR,,0.02,0.0,WeatherDisplay:10.37,2013-07-07 03:34:00,
2013-07-06 22:39:00,73.0,70.2,29.88,NW,323,0.0,0.0,91,0.00,CLR,,0.02,0.0,WeatherDisplay:10.37,2013-07-07 03:39:00,
2013-07-06 22:45:00,72.9,70.1,29.88,NW,322,0.0,0.0,91,0.00,CLR,,0.02,0.0,WeatherDisplay:10.37,2013-07-07 03:45:00,
2013-07-06 22:51:00,73.2,70.4,29.88,NW,323,0.0,0.0,91,0.00,CLR,,0.02,0.0,WeatherDisplay:10.37,2013-07-07 03:51:00,
2013-07-06 22:56:00,73.3,70.2,29.88,NW,323,0.0,0.0,90,0.00,CLR,,0.02,0.0,WeatherDisplay:10.37,2013-07-07 03:56:00,
2013-07-06 23:01:00,73.6,70.5,29.88,NW,323,0.0,0.0,90,0.00,CLR,,0.02,0.0,WeatherDisplay:10.37,2013-07-07 04:01:00,
2013-07-06 23:02:00,73.8,70.7,29.88,NW,322,0.0,0.0,90,0.00,OVC,,0.02,0.0,WeatherDisplay:10.37,2013-07-07 04:02:00,
2013-07-06 23:03:00,73.8,70.4,29.88,NW,322,0.0,0.0,89,0.00,OVC,,0.02,0.0,WeatherDisplay:10.37,2013-07-07 04:03:00,
2013-07-06 23:04:00,73.9,70.8,29.88,NW,322,0.0,1.2,90,0.00,OVC,,0.02,0.0,WeatherDisplay:10.37,2013-07-07 04:04:00,
2013-07-06 23:09:00,73.5,68.7,29.88,NW,325,0.0,0.0,85,0.00,OVC,,0.02,0.0,WeatherDisplay:10.37,2013-07-07 04:09:00,
2013-07-06 23:12:00,73.2,69.4,29.88,NW,325,0.0,0.0,88,0.00,OVC,,0.02,0.0,WeatherDisplay:10.37,2013-07-07 04:12:00,
2013-07-06 23:17:00,73.0,70.5,29.88,NW,325,0.0,0.0,92,0.00,OVC,,0.02,0.0,WeatherDisplay:10.37,2013-07-07 04:17:00,
2013-07-06 23:22:00,72.9,70.4,29.88,NW,325,0.0,0.0,92,0.00,OVC,,0.02,0.0,WeatherDisplay:10.37,2013-07-07 04:22:00,
2013-07-06 23:27:00,72.6,69.8,29.88,NW,325,0.0,0.0,91,0.00,OVC,,0.02,0.0,WeatherDisplay:10.37,2013-07-07 04:27:00,
2013-07-06 23:32:00,72.3,69.2,29.87,NW,325,0.0,0.0,90,0.00,OVC,,0.02,0.0,WeatherDisplay:10.37,2013-07-07 04:32:00,
2013-07-06 23:37:00,72.2,69.4,29.87,NW,325,0.0,0.0,91,0.00,OVC,,0.02,0.0,WeatherDisplay:10.37,2013-07-07 04:37:00,
2013-07-06 23:42:00,72.2,69.4,29.87,NW,325,0.0,0.0,91,0.00,OVC,,0.02,0.0,WeatherDisplay:10.37,2013-07-07 04:42:00,
2013-07-06 23:47:00,72.4,69.9,29.88,NW,325,0.0,0.0,92,0.00,OVC,,0.02,0.0,WeatherDisplay:10.37,2013-07-07 04:47:00,
2013-07-06 23:52:00,72.2,69.7,29.88,NW,325,0.0,0.0,92,0.00,OVC,,0.02,0.0,WeatherDisplay:10.37,2013-07-07 04:52:00,
2013-07-06 23:57:00,71.8,69.0,29.87,NW,325,0.0,0.0,91,0.00,OVC,,0.02,0.0,WeatherDisplay:10.37,2013-07-07 04:57:00,